sensor_id;sensor_type;location;lat;lon;timestamp;P1;durP1;ratioP1;P2;durP2;ratioP2
30466;SDS011;17258;52.560;13.046;2023-09-19T00:00:48;1.40;;;1.08;;
30466;SDS011;17258;52.560;13.046;2023-09-19T00:10:49;2.05;;;1.30;;
30466;SDS011;17258;52.560;13.046;2023-09-19T00:20:58;1.30;;;1.20;;
30466;SDS011;17258;52.560;13.046;2023-09-19T00:30:59;1.27;;;0.95;;
30466;SDS011;17258;52.560;13.046;2023-09-19T00:41:01;1.20;;;1.00;;
30466;SDS011;17258;52.560;13.046;2023-09-19T00:51:05;1.60;;;1.17;;
30466;SDS011;17258;52.560;13.046;2023-09-19T01:01:05;1.85;;;1.23;;
30466;SDS011;17258;52.560;13.046;2023-09-19T01:31:57;0.93;;;0.93;;
30466;SDS011;17258;52.560;13.046;2023-09-19T01:42:05;1.13;;;1.02;;
30466;SDS011;17258;52.560;13.046;2023-09-19T01:52:59;0.73;;;0.73;;
30466;SDS011;17258;52.560;13.046;2023-09-19T02:03:05;1.10;;;1.00;;
30466;SDS011;17258;52.560;13.046;2023-09-19T02:13:10;1.00;;;0.90;;
30466;SDS011;17258;52.560;13.046;2023-09-19T02:23:11;1.25;;;0.90;;
30466;SDS011;17258;52.560;13.046;2023-09-19T02:33:12;1.20;;;1.10;;
30466;SDS011;17258;52.560;13.046;2023-09-19T02:43:15;0.95;;;0.80;;
30466;SDS011;17258;52.560;13.046;2023-09-19T02:53:17;3.60;;;1.10;;
30466;SDS011;17258;52.560;13.046;2023-09-19T03:03:18;1.30;;;1.20;;
30466;SDS011;17258;52.560;13.046;2023-09-19T03:13:19;0.70;;;0.70;;
30466;SDS011;17258;52.560;13.046;2023-09-19T03:23:20;1.00;;;0.90;;
30466;SDS011;17258;52.560;13.046;2023-09-19T03:33:21;0.80;;;0.77;;
30466;SDS011;17258;52.560;13.046;2023-09-19T03:43:21;1.43;;;0.67;;
30466;SDS011;17258;52.560;13.046;2023-09-19T03:53:22;0.80;;;0.80;;
30466;SDS011;17258;52.560;13.046;2023-09-19T04:03:23;0.77;;;0.60;;
30466;SDS011;17258;52.560;13.046;2023-09-19T04:13:34;0.90;;;0.90;;
30466;SDS011;17258;52.560;13.046;2023-09-19T04:23:35;0.80;;;0.80;;
30466;SDS011;17258;52.560;13.046;2023-09-19T04:33:35;1.40;;;1.23;;
30466;SDS011;17258;52.560;13.046;2023-09-19T04:43:36;2.00;;;1.10;;
30466;SDS011;17258;52.560;13.046;2023-09-19T04:53:37;1.00;;;0.90;;
30466;SDS011;17258;52.560;13.046;2023-09-19T05:03:38;0.93;;;0.90;;
30466;SDS011;17258;52.560;13.046;2023-09-19T05:13:38;1.10;;;1.00;;
30466;SDS011;17258;52.560;13.046;2023-09-19T05:23:39;0.83;;;0.83;;
30466;SDS011;17258;52.560;13.046;2023-09-19T05:33:43;1.40;;;1.17;;
30466;SDS011;17258;52.560;13.046;2023-09-19T05:43:44;1.03;;;0.90;;
30466;SDS011;17258;52.560;13.046;2023-09-19T05:53:44;1.97;;;1.27;;
30466;SDS011;17258;52.560;13.046;2023-09-19T06:03:48;1.20;;;1.10;;
30466;SDS011;17258;52.560;13.046;2023-09-19T06:13:49;1.27;;;1.17;;
30466;SDS011;17258;52.560;13.046;2023-09-19T06:23:51;1.83;;;1.38;;
30466;SDS011;17258;52.560;13.046;2023-09-19T06:33:52;1.30;;;1.20;;
30466;SDS011;17258;52.560;13.046;2023-09-19T06:43:53;2.80;;;1.73;;
30466;SDS011;17258;52.560;13.046;2023-09-19T06:53:54;2.08;;;1.38;;
30466;SDS011;17258;52.560;13.046;2023-09-19T07:03:58;14.20;;;13.40;;
30466;SDS011;17258;52.560;13.046;2023-09-19T07:14:13;15.25;;;14.43;;
30466;SDS011;17258;52.560;13.046;2023-09-19T07:24:14;15.93;;;15.02;;
30466;SDS011;17258;52.560;13.046;2023-09-19T07:34:15;16.17;;;15.10;;
30466;SDS011;17258;52.560;13.046;2023-09-19T07:44:18;15.75;;;14.85;;
30466;SDS011;17258;52.560;13.046;2023-09-19T07:54:20;8.13;;;7.72;;
30466;SDS011;17258;52.560;13.046;2023-09-19T08:04:21;5.70;;;5.20;;
30466;SDS011;17258;52.560;13.046;2023-09-19T08:14:22;4.43;;;4.13;;
30466;SDS011;17258;52.560;13.046;2023-09-19T08:24:26;3.80;;;3.50;;
30466;SDS011;17258;52.560;13.046;2023-09-19T08:34:28;3.92;;;3.40;;
30466;SDS011;17258;52.560;13.046;2023-09-19T08:44:32;5.30;;;4.78;;
30466;SDS011;17258;52.560;13.046;2023-09-19T08:54:40;7.93;;;7.33;;
30466;SDS011;17258;52.560;13.046;2023-09-19T09:04:41;16.85;;;15.73;;
30466;SDS011;17258;52.560;13.046;2023-09-19T09:14:44;17.15;;;16.00;;
30466;SDS011;17258;52.560;13.046;2023-09-19T09:24:53;6.88;;;6.47;;
30466;SDS011;17258;52.560;13.046;2023-09-19T09:34:58;14.70;;;13.20;;
30466;SDS011;17258;52.560;13.046;2023-09-19T09:45:19;7.25;;;6.55;;
30466;SDS011;17258;52.560;13.046;2023-09-19T09:55:56;17.48;;;16.30;;
30466;SDS011;17258;52.560;13.046;2023-09-19T10:06:08;12.45;;;11.55;;
30466;SDS011;17258;52.560;13.046;2023-09-19T10:16:23;15.38;;;14.07;;
30466;SDS011;17258;52.560;13.046;2023-09-19T10:26:28;16.13;;;14.93;;
30466;SDS011;17258;52.560;13.046;2023-09-19T10:36:32;17.40;;;16.15;;
30466;SDS011;17258;52.560;13.046;2023-09-19T10:46:35;16.60;;;15.55;;
30466;SDS011;17258;52.560;13.046;2023-09-19T10:56:38;15.90;;;14.90;;
30466;SDS011;17258;52.560;13.046;2023-09-19T11:27:34;16.30;;;15.15;;
30466;SDS011;17258;52.560;13.046;2023-09-19T11:58:25;16.48;;;15.48;;
30466;SDS011;17258;52.560;13.046;2023-09-19T12:08:29;16.27;;;14.93;;
30466;SDS011;17258;52.560;13.046;2023-09-19T12:18:30;15.77;;;14.63;;
30466;SDS011;17258;52.560;13.046;2023-09-19T12:28:38;15.90;;;14.90;;
30466;SDS011;17258;52.560;13.046;2023-09-19T12:38:44;16.95;;;15.75;;
30466;SDS011;17258;52.560;13.046;2023-09-19T12:49:14;17.20;;;15.88;;
30466;SDS011;17258;52.560;13.046;2023-09-19T12:59:19;16.67;;;15.45;;
30466;SDS011;17258;52.560;13.046;2023-09-19T13:10:01;17.13;;;16.02;;
30466;SDS011;17258;52.560;13.046;2023-09-19T13:20:07;16.27;;;15.23;;
30466;SDS011;17258;52.560;13.046;2023-09-19T13:30:39;16.20;;;15.25;;
30466;SDS011;17258;52.560;13.046;2023-09-19T13:40:43;16.38;;;15.23;;
30466;SDS011;17258;52.560;13.046;2023-09-19T13:50:44;16.50;;;15.38;;
30466;SDS011;17258;52.560;13.046;2023-09-19T14:01:08;16.30;;;15.20;;
30466;SDS011;17258;52.560;13.046;2023-09-19T14:11:14;16.55;;;15.45;;
30466;SDS011;17258;52.560;13.046;2023-09-19T14:21:15;15.93;;;15.05;;
30466;SDS011;17258;52.560;13.046;2023-09-19T14:31:31;16.15;;;15.15;;
30466;SDS011;17258;52.560;13.046;2023-09-19T14:41:32;16.85;;;15.70;;
30466;SDS011;17258;52.560;13.046;2023-09-19T14:51:39;17.13;;;16.02;;
30466;SDS011;17258;52.560;13.046;2023-09-19T15:01:40;16.52;;;15.52;;
30466;SDS011;17258;52.560;13.046;2023-09-19T15:11:41;16.10;;;15.10;;
30466;SDS011;17258;52.560;13.046;2023-09-19T15:21:41;14.20;;;13.40;;
30466;SDS011;17258;52.560;13.046;2023-09-19T15:31:42;9.95;;;9.30;;
30466;SDS011;17258;52.560;13.046;2023-09-19T15:41:44;9.40;;;8.90;;
30466;SDS011;17258;52.560;13.046;2023-09-19T15:51:55;8.73;;;8.02;;
30466;SDS011;17258;52.560;13.046;2023-09-19T16:01:59;5.00;;;4.70;;
30466;SDS011;17258;52.560;13.046;2023-09-19T16:12:06;5.93;;;1.87;;
30466;SDS011;17258;52.560;13.046;2023-09-19T16:32:17;1.50;;;1.40;;
30466;SDS011;17258;52.560;13.046;2023-09-19T16:42:24;2.35;;;1.60;;
30466;SDS011;17258;52.560;13.046;2023-09-19T16:52:25;2.00;;;1.23;;
30466;SDS011;17258;52.560;13.046;2023-09-19T17:02:29;2.38;;;1.52;;
30466;SDS011;17258;52.560;13.046;2023-09-19T17:12:38;5.47;;;1.40;;
30466;SDS011;17258;52.560;13.046;2023-09-19T17:22:39;3.00;;;1.63;;
30466;SDS011;17258;52.560;13.046;2023-09-19T17:32:43;1.80;;;1.50;;
30466;SDS011;17258;52.560;13.046;2023-09-19T17:42:45;5.43;;;1.98;;
30466;SDS011;17258;52.560;13.046;2023-09-19T17:52:46;1.90;;;1.80;;
30466;SDS011;17258;52.560;13.046;2023-09-19T18:02:46;3.03;;;1.67;;
30466;SDS011;17258;52.560;13.046;2023-09-19T18:12:47;4.67;;;1.87;;
30466;SDS011;17258;52.560;13.046;2023-09-19T18:22:47;1.00;;;1.00;;
30466;SDS011;17258;52.560;13.046;2023-09-19T18:32:48;1.63;;;1.50;;
30466;SDS011;17258;52.560;13.046;2023-09-19T18:42:51;2.17;;;1.58;;
30466;SDS011;17258;52.560;13.046;2023-09-19T18:52:53;1.77;;;1.67;;
30466;SDS011;17258;52.560;13.046;2023-09-19T19:02:53;1.50;;;1.40;;
30466;SDS011;17258;52.560;13.046;2023-09-19T19:12:57;2.58;;;1.50;;
30466;SDS011;17258;52.560;13.046;2023-09-19T19:22:59;1.92;;;1.40;;
30466;SDS011;17258;52.560;13.046;2023-09-19T19:32:59;1.27;;;1.17;;
30466;SDS011;17258;52.560;13.046;2023-09-19T19:43:01;3.53;;;1.33;;
30466;SDS011;17258;52.560;13.046;2023-09-19T19:53:03;1.95;;;1.40;;
30466;SDS011;17258;52.560;13.046;2023-09-19T20:03:04;1.83;;;1.20;;
30466;SDS011;17258;52.560;13.046;2023-09-19T20:13:07;3.20;;;1.57;;
30466;SDS011;17258;52.560;13.046;2023-09-19T20:23:10;2.00;;;1.38;;
30466;SDS011;17258;52.560;13.046;2023-09-19T20:33:11;4.18;;;1.50;;
30466;SDS011;17258;52.560;13.046;2023-09-19T20:43:12;1.40;;;1.23;;
30466;SDS011;17258;52.560;13.046;2023-09-19T20:53:14;1.50;;;1.27;;
30466;SDS011;17258;52.560;13.046;2023-09-19T21:03:14;2.90;;;1.80;;
30466;SDS011;17258;52.560;13.046;2023-09-19T21:13:16;2.10;;;1.73;;
30466;SDS011;17258;52.560;13.046;2023-09-19T21:23:16;3.40;;;1.73;;
30466;SDS011;17258;52.560;13.046;2023-09-19T21:33:17;3.00;;;1.80;;
30466;SDS011;17258;52.560;13.046;2023-09-19T21:43:18;1.35;;;1.25;;
30466;SDS011;17258;52.560;13.046;2023-09-19T21:53:19;3.33;;;1.80;;
30466;SDS011;17258;52.560;13.046;2023-09-19T22:03:20;2.37;;;1.37;;
30466;SDS011;17258;52.560;13.046;2023-09-19T22:13:21;2.60;;;1.60;;
30466;SDS011;17258;52.560;13.046;2023-09-19T22:23:23;1.63;;;1.35;;
30466;SDS011;17258;52.560;13.046;2023-09-19T22:33:35;3.03;;;1.80;;
30466;SDS011;17258;52.560;13.046;2023-09-19T22:43:39;2.25;;;1.67;;
30466;SDS011;17258;52.560;13.046;2023-09-19T23:03:51;2.67;;;1.60;;
30466;SDS011;17258;52.560;13.046;2023-09-19T23:14:04;2.72;;;1.50;;
30466;SDS011;17258;52.560;13.046;2023-09-19T23:24:07;2.70;;;1.50;;
30466;SDS011;17258;52.560;13.046;2023-09-19T23:34:08;3.20;;;1.43;;
30466;SDS011;17258;52.560;13.046;2023-09-19T23:44:08;2.07;;;1.40;;
30466;SDS011;17258;52.560;13.046;2023-09-19T23:54:10;4.20;;;1.55;;
